sensor_id;sensor_type;location;lat;lon;timestamp;temperature;humidity
22532;DHT22;11432;46.924;7.114;2022-08-19T00:00:00;18.60;99.90
22532;DHT22;11432;46.924;7.114;2022-08-19T00:02:26;18.50;99.90
22532;DHT22;11432;46.924;7.114;2022-08-19T00:04:51;18.50;99.90
22532;DHT22;11432;46.924;7.114;2022-08-19T00:07:20;18.50;99.90
22532;DHT22;11432;46.924;7.114;2022-08-19T00:09:46;18.50;99.90
22532;DHT22;11432;46.924;7.114;2022-08-19T00:12:12;18.50;99.90
22532;DHT22;11432;46.924;7.114;2022-08-19T00:14:39;18.50;99.90
22532;DHT22;11432;46.924;7.114;2022-08-19T00:17:07;18.50;99.90
22532;DHT22;11432;46.924;7.114;2022-08-19T00:19:35;18.60;99.90
22532;DHT22;11432;46.924;7.114;2022-08-19T00:22:01;18.60;99.90
22532;DHT22;11432;46.924;7.114;2022-08-19T00:24:28;18.50;99.90
22532;DHT22;11432;46.924;7.114;2022-08-19T00:26:55;18.50;99.90
22532;DHT22;11432;46.924;7.114;2022-08-19T00:29:24;18.50;99.90
22532;DHT22;11432;46.924;7.114;2022-08-19T00:31:51;18.50;99.90
22532;DHT22;11432;46.924;7.114;2022-08-19T00:34:21;18.50;99.90
22532;DHT22;11432;46.924;7.114;2022-08-19T00:36:47;18.40;99.90
22532;DHT22;11432;46.924;7.114;2022-08-19T00:39:14;18.40;99.90
22532;DHT22;11432;46.924;7.114;2022-08-19T00:41:41;18.40;99.90
22532;DHT22;11432;46.924;7.114;2022-08-19T00:44:14;18.30;99.90
22532;DHT22;11432;46.924;7.114;2022-08-19T00:46:43;18.40;99.90
22532;DHT22;11432;46.924;7.114;2022-08-19T00:49:34;18.40;99.90
22532;DHT22;11432;46.924;7.114;2022-08-19T00:52:07;18.40;99.90
22532;DHT22;11432;46.924;7.114;2022-08-19T00:54:36;18.40;99.90
22532;DHT22;11432;46.924;7.114;2022-08-19T00:57:05;18.40;99.90
22532;DHT22;11432;46.924;7.114;2022-08-19T00:59:34;18.30;99.90
22532;DHT22;11432;46.924;7.114;2022-08-19T01:02:01;18.30;99.90
22532;DHT22;11432;46.924;7.114;2022-08-19T01:04:26;18.20;99.90
22532;DHT22;11432;46.924;7.114;2022-08-19T01:06:52;18.20;99.90
22532;DHT22;11432;46.924;7.114;2022-08-19T01:09:18;18.20;99.90
22532;DHT22;11432;46.924;7.114;2022-08-19T01:11:44;18.20;99.90
22532;DHT22;11432;46.924;7.114;2022-08-19T01:14:10;18.10;99.90
22532;DHT22;11432;46.924;7.114;2022-08-19T01:16:39;18.20;99.90
22532;DHT22;11432;46.924;7.114;2022-08-19T01:19:35;18.10;99.90
22532;DHT22;11432;46.924;7.114;2022-08-19T01:24:45;18.20;99.90
22532;DHT22;11432;46.924;7.114;2022-08-19T01:27:11;18.10;99.90
22532;DHT22;11432;46.924;7.114;2022-08-19T01:29:39;18.10;99.90
22532;DHT22;11432;46.924;7.114;2022-08-19T01:32:06;18.10;99.90
22532;DHT22;11432;46.924;7.114;2022-08-19T01:34:32;18.10;99.90
22532;DHT22;11432;46.924;7.114;2022-08-19T01:37:00;18.20;99.90
22532;DHT22;11432;46.924;7.114;2022-08-19T01:39:27;18.20;99.90
22532;DHT22;11432;46.924;7.114;2022-08-19T01:41:53;18.20;99.90
22532;DHT22;11432;46.924;7.114;2022-08-19T01:44:21;18.30;99.90
22532;DHT22;11432;46.924;7.114;2022-08-19T01:46:50;18.30;99.90
22532;DHT22;11432;46.924;7.114;2022-08-19T01:49:22;18.30;99.90
22532;DHT22;11432;46.924;7.114;2022-08-19T01:51:48;18.30;99.90
22532;DHT22;11432;46.924;7.114;2022-08-19T01:54:16;18.30;99.90
22532;DHT22;11432;46.924;7.114;2022-08-19T01:56:43;18.20;99.90
22532;DHT22;11432;46.924;7.114;2022-08-19T01:59:14;18.30;99.90
22532;DHT22;11432;46.924;7.114;2022-08-19T02:01:40;18.20;99.90
22532;DHT22;11432;46.924;7.114;2022-08-19T02:04:06;18.20;99.90
22532;DHT22;11432;46.924;7.114;2022-08-19T02:06:32;18.10;99.90
22532;DHT22;11432;46.924;7.114;2022-08-19T02:08:58;18.10;99.90
22532;DHT22;11432;46.924;7.114;2022-08-19T02:11:31;18.10;99.90
22532;DHT22;11432;46.924;7.114;2022-08-19T02:13:58;18.10;99.90
22532;DHT22;11432;46.924;7.114;2022-08-19T02:16:24;18.10;99.90
22532;DHT22;11432;46.924;7.114;2022-08-19T02:18:50;18.10;99.90
22532;DHT22;11432;46.924;7.114;2022-08-19T02:21:17;18.20;99.90
22532;DHT22;11432;46.924;7.114;2022-08-19T02:23:43;18.10;99.90
22532;DHT22;11432;46.924;7.114;2022-08-19T02:26:10;18.10;99.90
22532;DHT22;11432;46.924;7.114;2022-08-19T02:28:36;18.10;99.90
22532;DHT22;11432;46.924;7.114;2022-08-19T02:31:02;18.10;99.90
22532;DHT22;11432;46.924;7.114;2022-08-19T02:33:29;18.00;99.90
22532;DHT22;11432;46.924;7.114;2022-08-19T02:35:54;18.00;99.90
22532;DHT22;11432;46.924;7.114;2022-08-19T02:38:20;17.90;99.90
22532;DHT22;11432;46.924;7.114;2022-08-19T02:40:58;17.90;99.90
22532;DHT22;11432;46.924;7.114;2022-08-19T02:43:24;17.90;99.90
22532;DHT22;11432;46.924;7.114;2022-08-19T02:45:52;17.80;99.90
22532;DHT22;11432;46.924;7.114;2022-08-19T02:48:19;17.80;99.90
22532;DHT22;11432;46.924;7.114;2022-08-19T02:50:45;17.80;99.90
22532;DHT22;11432;46.924;7.114;2022-08-19T02:53:12;17.90;99.90
22532;DHT22;11432;46.924;7.114;2022-08-19T02:55:45;17.90;99.90
22532;DHT22;11432;46.924;7.114;2022-08-19T02:58:12;17.80;99.90
22532;DHT22;11432;46.924;7.114;2022-08-19T03:00:46;17.80;99.90
22532;DHT22;11432;46.924;7.114;2022-08-19T03:03:12;17.80;99.90
22532;DHT22;11432;46.924;7.114;2022-08-19T03:05:39;17.80;99.90
22532;DHT22;11432;46.924;7.114;2022-08-19T03:08:05;17.80;99.90
22532;DHT22;11432;46.924;7.114;2022-08-19T03:10:31;17.80;99.90
22532;DHT22;11432;46.924;7.114;2022-08-19T03:12:57;17.80;99.90
22532;DHT22;11432;46.924;7.114;2022-08-19T03:15:23;17.80;99.90
22532;DHT22;11432;46.924;7.114;2022-08-19T03:17:49;17.90;99.90
22532;DHT22;11432;46.924;7.114;2022-08-19T03:20:14;17.90;99.90
22532;DHT22;11432;46.924;7.114;2022-08-19T03:22:40;17.80;99.90
22532;DHT22;11432;46.924;7.114;2022-08-19T03:25:06;17.80;99.90
22532;DHT22;11432;46.924;7.114;2022-08-19T03:27:32;17.70;99.90
22532;DHT22;11432;46.924;7.114;2022-08-19T03:29:57;17.70;99.90
22532;DHT22;11432;46.924;7.114;2022-08-19T03:32:23;17.70;99.90
22532;DHT22;11432;46.924;7.114;2022-08-19T03:34:49;17.70;99.90
22532;DHT22;11432;46.924;7.114;2022-08-19T03:37:16;17.80;99.90
22532;DHT22;11432;46.924;7.114;2022-08-19T03:39:42;17.80;99.90
22532;DHT22;11432;46.924;7.114;2022-08-19T03:42:09;17.80;99.90
22532;DHT22;11432;46.924;7.114;2022-08-19T03:44:34;17.80;99.90
22532;DHT22;11432;46.924;7.114;2022-08-19T03:47:03;17.80;99.90
22532;DHT22;11432;46.924;7.114;2022-08-19T03:49:30;17.70;99.90
22532;DHT22;11432;46.924;7.114;2022-08-19T03:51:58;17.70;99.90
22532;DHT22;11432;46.924;7.114;2022-08-19T03:54:26;17.70;99.90
22532;DHT22;11432;46.924;7.114;2022-08-19T03:56:53;17.70;99.90
22532;DHT22;11432;46.924;7.114;2022-08-19T03:59:30;17.70;99.90
22532;DHT22;11432;46.924;7.114;2022-08-19T04:01:58;17.70;99.90
22532;DHT22;11432;46.924;7.114;2022-08-19T04:04:25;17.80;99.90
22532;DHT22;11432;46.924;7.114;2022-08-19T04:06:51;17.80;99.90
22532;DHT22;11432;46.924;7.114;2022-08-19T04:09:17;17.70;99.90
22532;DHT22;11432;46.924;7.114;2022-08-19T04:11:47;17.70;99.90
22532;DHT22;11432;46.924;7.114;2022-08-19T04:14:14;17.70;99.90
22532;DHT22;11432;46.924;7.114;2022-08-19T04:16:40;17.70;99.90
22532;DHT22;11432;46.924;7.114;2022-08-19T04:19:06;17.70;99.90
22532;DHT22;11432;46.924;7.114;2022-08-19T04:21:32;17.60;99.90
22532;DHT22;11432;46.924;7.114;2022-08-19T04:23:58;17.50;99.90
22532;DHT22;11432;46.924;7.114;2022-08-19T04:26:29;17.50;99.90
22532;DHT22;11432;46.924;7.114;2022-08-19T04:28:58;17.50;99.90
22532;DHT22;11432;46.924;7.114;2022-08-19T04:31:27;17.40;99.90
22532;DHT22;11432;46.924;7.114;2022-08-19T04:33:57;17.30;99.90
22532;DHT22;11432;46.924;7.114;2022-08-19T04:36:26;17.30;99.90
22532;DHT22;11432;46.924;7.114;2022-08-19T04:39:06;17.30;99.90
22532;DHT22;11432;46.924;7.114;2022-08-19T04:41:32;17.40;99.90
22532;DHT22;11432;46.924;7.114;2022-08-19T04:44:17;17.40;99.90
22532;DHT22;11432;46.924;7.114;2022-08-19T04:46:44;17.30;99.90
22532;DHT22;11432;46.924;7.114;2022-08-19T04:49:09;17.30;99.90
22532;DHT22;11432;46.924;7.114;2022-08-19T04:51:36;17.40;99.90
22532;DHT22;11432;46.924;7.114;2022-08-19T04:54:05;17.40;99.90
22532;DHT22;11432;46.924;7.114;2022-08-19T04:56:30;17.40;99.90
22532;DHT22;11432;46.924;7.114;2022-08-19T04:58:57;17.40;99.90
22532;DHT22;11432;46.924;7.114;2022-08-19T05:01:27;17.30;99.90
22532;DHT22;11432;46.924;7.114;2022-08-19T05:04:01;17.30;99.90
22532;DHT22;11432;46.924;7.114;2022-08-19T05:06:27;17.40;99.90
22532;DHT22;11432;46.924;7.114;2022-08-19T05:08:54;17.40;99.90
22532;DHT22;11432;46.924;7.114;2022-08-19T05:11:28;17.50;99.90
22532;DHT22;11432;46.924;7.114;2022-08-19T05:13:54;17.50;99.90
22532;DHT22;11432;46.924;7.114;2022-08-19T05:16:22;17.40;99.90
22532;DHT22;11432;46.924;7.114;2022-08-19T05:18:48;17.40;99.90
22532;DHT22;11432;46.924;7.114;2022-08-19T05:21:34;17.40;99.90
22532;DHT22;11432;46.924;7.114;2022-08-19T05:24:21;17.40;99.90
22532;DHT22;11432;46.924;7.114;2022-08-19T05:26:48;17.40;99.90
22532;DHT22;11432;46.924;7.114;2022-08-19T05:29:17;17.40;99.90
22532;DHT22;11432;46.924;7.114;2022-08-19T05:31:43;17.40;99.90
22532;DHT22;11432;46.924;7.114;2022-08-19T05:34:09;17.40;99.90
22532;DHT22;11432;46.924;7.114;2022-08-19T05:36:40;17.40;99.90
22532;DHT22;11432;46.924;7.114;2022-08-19T05:39:07;17.40;99.90
22532;DHT22;11432;46.924;7.114;2022-08-19T05:41:34;17.30;99.90
22532;DHT22;11432;46.924;7.114;2022-08-19T05:44:04;17.40;99.90
22532;DHT22;11432;46.924;7.114;2022-08-19T05:46:37;17.40;99.90
22532;DHT22;11432;46.924;7.114;2022-08-19T05:49:05;17.40;99.90
22532;DHT22;11432;46.924;7.114;2022-08-19T05:51:32;17.40;99.90
22532;DHT22;11432;46.924;7.114;2022-08-19T05:54:00;17.40;99.90
22532;DHT22;11432;46.924;7.114;2022-08-19T05:56:25;17.40;99.90
22532;DHT22;11432;46.924;7.114;2022-08-19T05:58:52;17.40;99.90
22532;DHT22;11432;46.924;7.114;2022-08-19T06:02:49;18.50;99.90
22532;DHT22;11432;46.924;7.114;2022-08-19T06:05:16;17.40;99.90
22532;DHT22;11432;46.924;7.114;2022-08-19T06:07:42;17.40;99.90
22532;DHT22;11432;46.924;7.114;2022-08-19T06:10:09;17.40;99.90
22532;DHT22;11432;46.924;7.114;2022-08-19T06:12:36;17.40;99.90
22532;DHT22;11432;46.924;7.114;2022-08-19T06:15:08;17.40;99.90
22532;DHT22;11432;46.924;7.114;2022-08-19T06:17:34;17.40;99.90
22532;DHT22;11432;46.924;7.114;2022-08-19T06:20:01;17.40;99.90
22532;DHT22;11432;46.924;7.114;2022-08-19T06:22:27;17.40;99.90
22532;DHT22;11432;46.924;7.114;2022-08-19T06:24:53;17.30;99.90
22532;DHT22;11432;46.924;7.114;2022-08-19T06:27:20;17.30;99.90
22532;DHT22;11432;46.924;7.114;2022-08-19T06:29:46;17.30;99.90
22532;DHT22;11432;46.924;7.114;2022-08-19T06:32:13;17.30;99.90
22532;DHT22;11432;46.924;7.114;2022-08-19T06:34:40;17.30;99.90
22532;DHT22;11432;46.924;7.114;2022-08-19T06:37:07;17.30;99.90
22532;DHT22;11432;46.924;7.114;2022-08-19T06:39:36;17.30;99.90
22532;DHT22;11432;46.924;7.114;2022-08-19T06:42:04;17.30;99.90
22532;DHT22;11432;46.924;7.114;2022-08-19T06:44:34;17.40;99.90
22532;DHT22;11432;46.924;7.114;2022-08-19T06:47:07;17.50;99.90
22532;DHT22;11432;46.924;7.114;2022-08-19T06:49:33;17.60;99.90
22532;DHT22;11432;46.924;7.114;2022-08-19T06:51:59;17.50;99.90
22532;DHT22;11432;46.924;7.114;2022-08-19T06:54:26;17.50;99.90
22532;DHT22;11432;46.924;7.114;2022-08-19T06:56:52;17.40;99.90
22532;DHT22;11432;46.924;7.114;2022-08-19T06:59:21;17.40;99.90
22532;DHT22;11432;46.924;7.114;2022-08-19T07:01:53;17.30;99.90
22532;DHT22;11432;46.924;7.114;2022-08-19T07:04:26;17.40;99.90
22532;DHT22;11432;46.924;7.114;2022-08-19T07:06:58;17.40;99.90
22532;DHT22;11432;46.924;7.114;2022-08-19T07:09:24;17.40;99.90
22532;DHT22;11432;46.924;7.114;2022-08-19T07:11:51;17.40;99.90
22532;DHT22;11432;46.924;7.114;2022-08-19T07:14:20;17.50;99.90
22532;DHT22;11432;46.924;7.114;2022-08-19T07:16:48;17.80;99.90
22532;DHT22;11432;46.924;7.114;2022-08-19T07:19:15;17.60;99.90
22532;DHT22;11432;46.924;7.114;2022-08-19T07:21:41;17.80;99.90
22532;DHT22;11432;46.924;7.114;2022-08-19T07:24:07;17.70;99.90
22532;DHT22;11432;46.924;7.114;2022-08-19T07:26:38;17.70;99.90
22532;DHT22;11432;46.924;7.114;2022-08-19T07:29:05;17.60;99.90
22532;DHT22;11432;46.924;7.114;2022-08-19T07:31:31;17.60;99.90
22532;DHT22;11432;46.924;7.114;2022-08-19T07:34:00;17.50;99.90
22532;DHT22;11432;46.924;7.114;2022-08-19T07:36:27;17.60;99.90
22532;DHT22;11432;46.924;7.114;2022-08-19T07:38:59;17.60;99.90
22532;DHT22;11432;46.924;7.114;2022-08-19T07:41:27;17.60;99.90
22532;DHT22;11432;46.924;7.114;2022-08-19T07:43:54;17.70;99.90
22532;DHT22;11432;46.924;7.114;2022-08-19T07:46:20;17.60;99.90
22532;DHT22;11432;46.924;7.114;2022-08-19T07:48:47;17.70;99.90
22532;DHT22;11432;46.924;7.114;2022-08-19T07:51:17;17.70;99.90
22532;DHT22;11432;46.924;7.114;2022-08-19T07:53:44;17.70;99.90
22532;DHT22;11432;46.924;7.114;2022-08-19T07:56:12;17.80;99.90
22532;DHT22;11432;46.924;7.114;2022-08-19T07:58:40;17.80;99.90
22532;DHT22;11432;46.924;7.114;2022-08-19T08:01:08;17.80;99.90
22532;DHT22;11432;46.924;7.114;2022-08-19T08:03:36;17.90;99.90
22532;DHT22;11432;46.924;7.114;2022-08-19T08:06:31;17.90;99.90
22532;DHT22;11432;46.924;7.114;2022-08-19T08:09:18;17.90;99.90
22532;DHT22;11432;46.924;7.114;2022-08-19T08:11:52;18.00;99.90
22532;DHT22;11432;46.924;7.114;2022-08-19T08:14:28;18.10;99.90
22532;DHT22;11432;46.924;7.114;2022-08-19T08:16:54;18.10;99.90
22532;DHT22;11432;46.924;7.114;2022-08-19T08:19:21;18.20;99.90
22532;DHT22;11432;46.924;7.114;2022-08-19T08:21:49;18.30;99.90
22532;DHT22;11432;46.924;7.114;2022-08-19T08:24:16;18.30;99.90
22532;DHT22;11432;46.924;7.114;2022-08-19T08:26:43;18.40;99.90
22532;DHT22;11432;46.924;7.114;2022-08-19T08:29:10;18.40;99.90
22532;DHT22;11432;46.924;7.114;2022-08-19T08:31:39;18.80;99.90
22532;DHT22;11432;46.924;7.114;2022-08-19T08:34:05;18.70;99.90
22532;DHT22;11432;46.924;7.114;2022-08-19T08:36:31;18.60;99.90
22532;DHT22;11432;46.924;7.114;2022-08-19T08:38:59;18.80;99.90
22532;DHT22;11432;46.924;7.114;2022-08-19T08:43:54;18.80;99.90
22532;DHT22;11432;46.924;7.114;2022-08-19T08:46:35;18.90;99.90
22532;DHT22;11432;46.924;7.114;2022-08-19T08:49:28;18.90;99.90
22532;DHT22;11432;46.924;7.114;2022-08-19T08:52:06;19.00;99.90
22532;DHT22;11432;46.924;7.114;2022-08-19T08:54:46;19.10;99.90
22532;DHT22;11432;46.924;7.114;2022-08-19T08:57:21;19.30;99.90
22532;DHT22;11432;46.924;7.114;2022-08-19T08:59:50;19.30;99.90
22532;DHT22;11432;46.924;7.114;2022-08-19T09:02:18;19.40;99.90
22532;DHT22;11432;46.924;7.114;2022-08-19T09:04:44;19.60;99.90
22532;DHT22;11432;46.924;7.114;2022-08-19T09:07:27;19.60;99.90
22532;DHT22;11432;46.924;7.114;2022-08-19T09:10:20;19.40;99.90
22532;DHT22;11432;46.924;7.114;2022-08-19T09:15:44;19.90;99.90
22532;DHT22;11432;46.924;7.114;2022-08-19T09:18:11;20.00;99.90
22532;DHT22;11432;46.924;7.114;2022-08-19T09:20:37;20.00;99.90
22532;DHT22;11432;46.924;7.114;2022-08-19T09:23:03;20.10;99.90
22532;DHT22;11432;46.924;7.114;2022-08-19T09:25:29;20.30;99.90
22532;DHT22;11432;46.924;7.114;2022-08-19T09:27:57;20.30;99.90
22532;DHT22;11432;46.924;7.114;2022-08-19T09:30:29;20.20;99.90
22532;DHT22;11432;46.924;7.114;2022-08-19T09:32:55;20.30;99.90
22532;DHT22;11432;46.924;7.114;2022-08-19T09:35:23;20.20;99.90
22532;DHT22;11432;46.924;7.114;2022-08-19T09:37:49;20.10;99.90
22532;DHT22;11432;46.924;7.114;2022-08-19T09:40:16;20.10;99.90
22532;DHT22;11432;46.924;7.114;2022-08-19T09:42:43;20.00;99.90
22532;DHT22;11432;46.924;7.114;2022-08-19T09:45:10;20.00;99.90
22532;DHT22;11432;46.924;7.114;2022-08-19T09:47:36;20.20;99.90
22532;DHT22;11432;46.924;7.114;2022-08-19T09:50:08;20.20;99.90
22532;DHT22;11432;46.924;7.114;2022-08-19T09:52:34;20.20;99.90
22532;DHT22;11432;46.924;7.114;2022-08-19T09:55:08;20.30;99.90
22532;DHT22;11432;46.924;7.114;2022-08-19T09:57:34;20.20;99.90
22532;DHT22;11432;46.924;7.114;2022-08-19T10:00:00;20.10;99.90
22532;DHT22;11432;46.924;7.114;2022-08-19T10:02:26;20.30;99.90
22532;DHT22;11432;46.924;7.114;2022-08-19T10:04:51;20.50;99.90
22532;DHT22;11432;46.924;7.114;2022-08-19T10:07:37;20.50;99.90
22532;DHT22;11432;46.924;7.114;2022-08-19T10:10:04;20.60;99.90
22532;DHT22;11432;46.924;7.114;2022-08-19T10:12:32;20.60;99.90
22532;DHT22;11432;46.924;7.114;2022-08-19T10:14:59;20.30;99.90
22532;DHT22;11432;46.924;7.114;2022-08-19T10:17:24;20.20;99.90
22532;DHT22;11432;46.924;7.114;2022-08-19T10:19:51;20.10;99.90
22532;DHT22;11432;46.924;7.114;2022-08-19T10:22:18;20.00;99.90
22532;DHT22;11432;46.924;7.114;2022-08-19T10:24:45;20.00;99.90
22532;DHT22;11432;46.924;7.114;2022-08-19T10:27:11;19.90;99.90
22532;DHT22;11432;46.924;7.114;2022-08-19T10:29:38;20.00;99.90
22532;DHT22;11432;46.924;7.114;2022-08-19T10:32:07;20.00;99.90
22532;DHT22;11432;46.924;7.114;2022-08-19T10:34:34;20.10;99.90
22532;DHT22;11432;46.924;7.114;2022-08-19T10:37:00;20.30;99.90
22532;DHT22;11432;46.924;7.114;2022-08-19T10:39:28;20.20;99.90
22532;DHT22;11432;46.924;7.114;2022-08-19T10:41:55;20.30;99.90
22532;DHT22;11432;46.924;7.114;2022-08-19T10:44:22;20.20;99.90
22532;DHT22;11432;46.924;7.114;2022-08-19T10:46:49;20.20;99.90
22532;DHT22;11432;46.924;7.114;2022-08-19T10:49:15;20.20;99.90
22532;DHT22;11432;46.924;7.114;2022-08-19T10:51:42;20.20;99.90
22532;DHT22;11432;46.924;7.114;2022-08-19T10:54:27;20.20;99.90
22532;DHT22;11432;46.924;7.114;2022-08-19T10:57:13;20.10;99.90
22532;DHT22;11432;46.924;7.114;2022-08-19T10:59:39;20.20;99.90
22532;DHT22;11432;46.924;7.114;2022-08-19T11:02:08;20.10;99.90
22532;DHT22;11432;46.924;7.114;2022-08-19T11:04:39;20.20;99.90
22532;DHT22;11432;46.924;7.114;2022-08-19T11:07:05;20.20;99.90
22532;DHT22;11432;46.924;7.114;2022-08-19T11:09:37;20.40;99.90
22532;DHT22;11432;46.924;7.114;2022-08-19T11:12:04;20.40;99.90
22532;DHT22;11432;46.924;7.114;2022-08-19T11:14:30;20.40;99.90
22532;DHT22;11432;46.924;7.114;2022-08-19T11:16:58;20.50;99.90
22532;DHT22;11432;46.924;7.114;2022-08-19T11:19:23;20.70;99.90
22532;DHT22;11432;46.924;7.114;2022-08-19T11:21:50;20.80;99.90
22532;DHT22;11432;46.924;7.114;2022-08-19T11:24:22;20.70;99.90
22532;DHT22;11432;46.924;7.114;2022-08-19T11:26:50;20.60;99.90
22532;DHT22;11432;46.924;7.114;2022-08-19T11:29:18;20.70;99.90
22532;DHT22;11432;46.924;7.114;2022-08-19T11:31:46;20.90;99.90
22532;DHT22;11432;46.924;7.114;2022-08-19T11:34:15;21.00;99.90
22532;DHT22;11432;46.924;7.114;2022-08-19T11:36:43;21.00;99.90
22532;DHT22;11432;46.924;7.114;2022-08-19T11:39:12;21.00;99.90
22532;DHT22;11432;46.924;7.114;2022-08-19T11:41:39;21.00;99.90
22532;DHT22;11432;46.924;7.114;2022-08-19T11:44:05;21.10;99.90
22532;DHT22;11432;46.924;7.114;2022-08-19T11:46:33;21.00;99.90
22532;DHT22;11432;46.924;7.114;2022-08-19T11:49:00;21.20;99.90
22532;DHT22;11432;46.924;7.114;2022-08-19T11:51:27;21.30;99.90
22532;DHT22;11432;46.924;7.114;2022-08-19T11:53:54;21.20;99.90
22532;DHT22;11432;46.924;7.114;2022-08-19T11:56:22;21.10;99.90
22532;DHT22;11432;46.924;7.114;2022-08-19T11:58:48;21.30;99.90
22532;DHT22;11432;46.924;7.114;2022-08-19T12:01:16;21.60;99.90
22532;DHT22;11432;46.924;7.114;2022-08-19T12:03:44;21.70;99.90
22532;DHT22;11432;46.924;7.114;2022-08-19T12:06:17;21.80;99.90
22532;DHT22;11432;46.924;7.114;2022-08-19T12:08:44;21.70;99.90
22532;DHT22;11432;46.924;7.114;2022-08-19T12:11:11;21.80;99.90
22532;DHT22;11432;46.924;7.114;2022-08-19T12:13:38;21.60;99.90
22532;DHT22;11432;46.924;7.114;2022-08-19T12:16:11;21.40;99.90
22532;DHT22;11432;46.924;7.114;2022-08-19T12:18:38;21.20;99.90
22532;DHT22;11432;46.924;7.114;2022-08-19T12:21:06;21.20;99.90
22532;DHT22;11432;46.924;7.114;2022-08-19T12:23:32;21.40;99.90
22532;DHT22;11432;46.924;7.114;2022-08-19T12:25:57;21.30;99.90
22532;DHT22;11432;46.924;7.114;2022-08-19T12:28:24;21.50;99.90
22532;DHT22;11432;46.924;7.114;2022-08-19T12:30:51;21.70;99.90
22532;DHT22;11432;46.924;7.114;2022-08-19T12:33:18;22.00;99.90
22532;DHT22;11432;46.924;7.114;2022-08-19T12:35:45;22.50;99.90
22532;DHT22;11432;46.924;7.114;2022-08-19T12:38:13;22.90;1.00
22532;DHT22;11432;46.924;7.114;2022-08-19T12:40:39;22.90;1.00
22532;DHT22;11432;46.924;7.114;2022-08-19T12:43:08;22.60;1.00
22532;DHT22;11432;46.924;7.114;2022-08-19T12:45:34;22.60;1.00
22532;DHT22;11432;46.924;7.114;2022-08-19T12:48:00;23.00;1.00
22532;DHT22;11432;46.924;7.114;2022-08-19T12:50:25;22.60;1.00
22532;DHT22;11432;46.924;7.114;2022-08-19T12:52:51;22.50;1.00
22532;DHT22;11432;46.924;7.114;2022-08-19T12:55:17;22.90;1.00
22532;DHT22;11432;46.924;7.114;2022-08-19T12:57:44;23.20;1.00
22532;DHT22;11432;46.924;7.114;2022-08-19T13:00:16;23.70;99.90
22532;DHT22;11432;46.924;7.114;2022-08-19T13:02:45;24.80;99.90
22532;DHT22;11432;46.924;7.114;2022-08-19T13:05:14;25.00;99.90
22532;DHT22;11432;46.924;7.114;2022-08-19T13:07:41;25.20;99.90
22532;DHT22;11432;46.924;7.114;2022-08-19T13:10:13;25.90;99.90
22532;DHT22;11432;46.924;7.114;2022-08-19T13:12:41;25.50;99.90
22532;DHT22;11432;46.924;7.114;2022-08-19T13:15:07;25.10;99.90
22532;DHT22;11432;46.924;7.114;2022-08-19T13:17:34;26.20;99.90
22532;DHT22;11432;46.924;7.114;2022-08-19T13:19:59;27.00;1.00
22532;DHT22;11432;46.924;7.114;2022-08-19T13:22:25;28.20;1.00
22532;DHT22;11432;46.924;7.114;2022-08-19T13:24:52;28.40;1.00
22532;DHT22;11432;46.924;7.114;2022-08-19T13:27:18;28.50;99.90
22532;DHT22;11432;46.924;7.114;2022-08-19T13:29:43;28.60;1.00
22532;DHT22;11432;46.924;7.114;2022-08-19T13:32:29;28.60;1.00
22532;DHT22;11432;46.924;7.114;2022-08-19T13:35:13;28.00;99.90
22532;DHT22;11432;46.924;7.114;2022-08-19T13:37:40;27.00;1.00
22532;DHT22;11432;46.924;7.114;2022-08-19T13:40:15;27.10;1.00
22532;DHT22;11432;46.924;7.114;2022-08-19T13:42:44;27.70;99.90
22532;DHT22;11432;46.924;7.114;2022-08-19T13:45:12;28.20;1.00
22532;DHT22;11432;46.924;7.114;2022-08-19T13:47:39;28.80;99.90
22532;DHT22;11432;46.924;7.114;2022-08-19T13:50:16;28.30;1.00
22532;DHT22;11432;46.924;7.114;2022-08-19T13:52:43;28.80;99.90
22532;DHT22;11432;46.924;7.114;2022-08-19T13:55:10;29.50;1.00
22532;DHT22;11432;46.924;7.114;2022-08-19T13:57:36;29.00;1.00
22532;DHT22;11432;46.924;7.114;2022-08-19T14:00:12;28.70;1.00
22532;DHT22;11432;46.924;7.114;2022-08-19T14:02:39;28.30;1.00
22532;DHT22;11432;46.924;7.114;2022-08-19T14:05:08;28.70;99.90
22532;DHT22;11432;46.924;7.114;2022-08-19T14:07:34;29.30;1.00
22532;DHT22;11432;46.924;7.114;2022-08-19T14:10:00;28.90;1.00
22532;DHT22;11432;46.924;7.114;2022-08-19T14:12:25;27.70;1.00
22532;DHT22;11432;46.924;7.114;2022-08-19T14:14:51;27.20;1.00
22532;DHT22;11432;46.924;7.114;2022-08-19T14:17:17;26.80;1.00
22532;DHT22;11432;46.924;7.114;2022-08-19T14:19:43;26.50;1.00
22532;DHT22;11432;46.924;7.114;2022-08-19T14:22:09;27.10;1.00
22532;DHT22;11432;46.924;7.114;2022-08-19T14:24:36;27.50;1.00
22532;DHT22;11432;46.924;7.114;2022-08-19T14:27:02;28.70;1.00
22532;DHT22;11432;46.924;7.114;2022-08-19T14:29:28;29.00;1.00
22532;DHT22;11432;46.924;7.114;2022-08-19T14:31:55;27.80;1.00
22532;DHT22;11432;46.924;7.114;2022-08-19T14:34:24;28.10;99.90
22532;DHT22;11432;46.924;7.114;2022-08-19T14:36:50;26.10;1.00
22532;DHT22;11432;46.924;7.114;2022-08-19T14:39:16;25.40;1.00
22532;DHT22;11432;46.924;7.114;2022-08-19T14:41:41;25.10;99.90
22532;DHT22;11432;46.924;7.114;2022-08-19T14:44:07;25.10;1.00
22532;DHT22;11432;46.924;7.114;2022-08-19T14:46:35;25.00;1.00
22532;DHT22;11432;46.924;7.114;2022-08-19T14:49:01;24.50;1.00
22532;DHT22;11432;46.924;7.114;2022-08-19T14:51:26;24.00;1.00
22532;DHT22;11432;46.924;7.114;2022-08-19T14:53:52;24.00;1.00
22532;DHT22;11432;46.924;7.114;2022-08-19T14:56:22;23.90;1.00
22532;DHT22;11432;46.924;7.114;2022-08-19T14:58:48;23.80;1.00
22532;DHT22;11432;46.924;7.114;2022-08-19T15:01:18;23.50;1.00
22532;DHT22;11432;46.924;7.114;2022-08-19T15:03:46;23.20;99.90
22532;DHT22;11432;46.924;7.114;2022-08-19T15:06:11;23.10;99.90
22532;DHT22;11432;46.924;7.114;2022-08-19T15:08:39;23.10;99.90
22532;DHT22;11432;46.924;7.114;2022-08-19T15:11:10;23.00;99.90
22532;DHT22;11432;46.924;7.114;2022-08-19T15:13:36;22.90;99.90
22532;DHT22;11432;46.924;7.114;2022-08-19T15:16:02;22.90;99.90
22532;DHT22;11432;46.924;7.114;2022-08-19T15:18:27;22.90;99.90
22532;DHT22;11432;46.924;7.114;2022-08-19T15:20:53;22.90;99.90
22532;DHT22;11432;46.924;7.114;2022-08-19T15:23:20;22.90;99.90
22532;DHT22;11432;46.924;7.114;2022-08-19T15:25:46;22.90;99.90
22532;DHT22;11432;46.924;7.114;2022-08-19T15:28:12;22.90;99.90
22532;DHT22;11432;46.924;7.114;2022-08-19T15:30:39;23.00;99.90
22532;DHT22;11432;46.924;7.114;2022-08-19T15:33:06;23.00;99.90
22532;DHT22;11432;46.924;7.114;2022-08-19T15:35:31;22.90;99.90
22532;DHT22;11432;46.924;7.114;2022-08-19T15:37:57;22.90;99.90
22532;DHT22;11432;46.924;7.114;2022-08-19T15:40:25;22.90;99.90
22532;DHT22;11432;46.924;7.114;2022-08-19T15:42:51;22.90;99.90
22532;DHT22;11432;46.924;7.114;2022-08-19T15:45:19;22.90;99.90
22532;DHT22;11432;46.924;7.114;2022-08-19T15:47:45;22.80;99.90